Time;durP1;ratioP1;P1;durP2;ratioP2;P2;SDS_P1;SDS_P2;PMS_P1;PMS_P2;Temp;Humidity;BMP_temperature;BMP_pressure;BME280_temperature;BME280_humidity;BME280_pressure;Samples;Min_cycle;Max_cycle;Signal;HPM_P1;HPM_P2
2021/07/24 00:02:04;;;;;;;22.75;13.50;;;;;;;;;;5027234;28;20558;-78
2021/07/24 00:04:32;;;;;;;22.80;12.77;;;;;;;;;;5031337;28;20046;-78
2021/07/24 00:07:00;;;;;;;29.50;13.30;;;;;;;;;;5017536;28;20137;-78
2021/07/24 00:09:29;;;;;;;28.73;13.27;;;;;;;;;;5015107;28;20140;-78
2021/07/24 00:11:57;;;;;;;22.05;13.52;;;;;;;;;;5028423;28;20103;-78
2021/07/24 00:14:24;;;;;;;24.30;12.60;;;;;;;;;;5028699;28;20107;-78
2021/07/24 00:16:51;;;;;;;22.33;12.90;;;;;;;;;;5025832;28;20398;-79
2021/07/24 00:19:19;;;;;;;21.92;13.05;;;;;;;;;;5029461;28;20046;-78
2021/07/24 00:21:46;;;;;;;24.52;12.27;;;;;;;;;;5028848;28;20141;-78
2021/07/24 00:24:13;;;;;;;27.98;13.40;;;;;;;;;;5018161;28;20141;-78
2021/07/24 00:26:40;;;;;;;27.77;13.32;;;;;;;;;;5027484;28;20740;-78
2021/07/24 00:29:07;;;;;;;25.20;13.13;;;;;;;;;;5024714;28;20053;-79
2021/07/24 00:31:35;;;;;;;27.52;12.70;;;;;;;;;;5026196;28;20080;-78
2021/07/24 00:34:04;;;;;;;25.88;12.93;;;;;;;;;;5022954;28;20482;-78
2021/07/24 00:36:31;;;;;;;25.65;13.32;;;;;;;;;;5042978;28;20072;-78
2021/07/24 00:39:00;;;;;;;24.80;13.55;;;;;;;;;;5028192;28;20077;-78
2021/07/24 00:41:30;;;;;;;33.78;13.98;;;;;;;;;;5021746;28;20053;-78
2021/07/24 00:44:00;;;;;;;28.27;14.18;;;;;;;;;;5024279;28;20537;-78
2021/07/24 00:46:30;;;;;;;25.27;14.32;;;;;;;;;;5027786;28;20433;-78
2021/07/24 00:48:57;;;;;;;26.60;14.32;;;;;;;;;;5028306;28;20076;-78
2021/07/24 00:51:31;;;;;;;31.20;14.05;;;;;;;;;;5028852;28;20124;-79
2021/07/24 00:54:04;;;;;;;32.33;14.27;;;;;;;;;;5025273;28;20573;-79
2021/07/24 00:56:32;;;;;;;27.25;14.57;;;;;;;;;;5011602;28;20073;-79
2021/07/24 00:58:59;;;;;;;24.55;13.45;;;;;;;;;;5023281;28;20128;-79
2021/07/24 01:01:26;;;;;;;26.50;13.35;;;;;;;;;;5024030;28;20128;-79
2021/07/24 01:03:54;;;;;;;30.85;14.07;;;;;;;;;;5025630;28;20474;-78
2021/07/24 01:06:23;;;;;;;26.35;13.45;;;;;;;;;;5026362;28;20562;-79
2021/07/24 01:08:50;;;;;;;21.40;13.02;;;;;;;;;;5019405;28;20052;-78
2021/07/24 01:11:17;;;;;;;27.05;14.48;;;;;;;;;;5034334;28;20057;-79
2021/07/24 01:13:45;;;;;;;24.75;13.27;;;;;;;;;;5032555;28;20049;-79
2021/07/24 01:16:12;;;;;;;24.90;14.18;;;;;;;;;;5033265;28;20053;-79
2021/07/24 01:18:41;;;;;;;27.13;14.93;;;;;;;;;;5024198;28;20819;-79
2021/07/24 01:21:09;;;;;;;32.40;13.52;;;;;;;;;;5030274;28;20149;-79
2021/07/24 01:23:37;;;;;;;28.95;14.15;;;;;;;;;;5032186;28;20365;-80
2021/07/24 01:26:05;;;;;;;28.13;13.75;;;;;;;;;;5032451;28;20092;-79
2021/07/24 01:28:35;;;;;;;32.03;13.70;;;;;;;;;;5030193;28;20091;-79
2021/07/24 01:31:03;;;;;;;27.77;14.23;;;;;;;;;;5026904;28;20057;-79
2021/07/24 01:33:32;;;;;;;31.15;13.70;;;;;;;;;;5028892;28;20132;-79
2021/07/24 01:35:59;;;;;;;26.17;12.82;;;;;;;;;;5025188;28;20489;-78
2021/07/24 01:38:27;;;;;;;28.42;13.07;;;;;;;;;;5032722;28;20056;-79
2021/07/24 01:40:54;;;;;;;25.95;12.25;;;;;;;;;;5030197;28;20124;-79
2021/07/24 01:43:22;;;;;;;38.40;14.02;;;;;;;;;;5028560;28;20054;-79
2021/07/24 01:45:51;;;;;;;26.33;12.98;;;;;;;;;;5038966;28;20056;-79
2021/07/24 01:48:29;;;;;;;30.45;14.55;;;;;;;;;;5025853;28;20080;-79
2021/07/24 01:53:44;;;;;;;30.95;14.93;;;;;;;;;;5030935;28;20494;-79
2021/07/24 01:56:11;;;;;;;27.58;14.15;;;;;;;;;;5031161;28;20072;-79
2021/07/24 01:58:38;;;;;;;24.85;12.65;;;;;;;;;;5043165;28;20168;-79
2021/07/24 02:01:06;;;;;;;26.08;12.65;;;;;;;;;;5030102;28;20546;-79
2021/07/24 02:03:43;;;;;;;30.52;14.52;;;;;;;;;;5031882;28;20128;-79
2021/07/24 02:06:11;;;;;;;26.48;13.15;;;;;;;;;;5039256;28;20050;-79
2021/07/24 02:08:39;;;;;;;32.25;13.30;;;;;;;;;;5031452;28;20057;-79
2021/07/24 02:11:07;;;;;;;29.25;13.52;;;;;;;;;;5032091;28;20069;-79
2021/07/24 02:13:34;;;;;;;24.25;13.40;;;;;;;;;;5029533;28;20046;-79
2021/07/24 02:16:02;;;;;;;28.73;14.20;;;;;;;;;;5033266;28;20045;-79
2021/07/24 02:18:29;;;;;;;25.88;13.25;;;;;;;;;;5026980;28;20124;-79
2021/07/24 02:20:56;;;;;;;24.73;12.68;;;;;;;;;;5031381;28;20038;-79
2021/07/24 02:23:23;;;;;;;33.70;12.70;;;;;;;;;;5030612;28;20049;-79
2021/07/24 02:25:50;;;;;;;23.23;11.93;;;;;;;;;;5031261;28;20132;-79
2021/07/24 02:28:18;;;;;;;24.80;13.23;;;;;;;;;;5031382;28;20053;-79
2021/07/24 02:30:46;;;;;;;22.92;11.77;;;;;;;;;;5030816;28;20080;-79
2021/07/24 02:33:13;;;;;;;30.63;12.70;;;;;;;;;;5029761;28;20042;-79
2021/07/24 02:35:40;;;;;;;24.67;11.75;;;;;;;;;;5030567;28;20125;-79
2021/07/24 02:38:09;;;;;;;27.23;12.73;;;;;;;;;;5030905;28;20132;-79
2021/07/24 02:40:37;;;;;;;23.90;11.75;;;;;;;;;;5021801;28;20077;-80
2021/07/24 02:43:05;;;;;;;24.02;12.18;;;;;;;;;;5029777;28;20609;-79
2021/07/24 02:45:32;;;;;;;26.83;12.15;;;;;;;;;;5029321;28;20838;-79
2021/07/24 02:47:59;;;;;;;26.50;12.43;;;;;;;;;;5023443;28;20111;-79
2021/07/24 02:50:26;;;;;;;27.38;12.35;;;;;;;;;;5030875;28;20128;-79
2021/07/24 02:52:54;;;;;;;29.23;11.75;;;;;;;;;;5029552;28;20565;-80
2021/07/24 02:55:21;;;;;;;24.75;12.02;;;;;;;;;;5031026;28;20434;-79
2021/07/24 02:57:48;;;;;;;25.90;12.13;;;;;;;;;;5029503;28;20046;-79
2021/07/24 03:00:15;;;;;;;24.35;11.00;;;;;;;;;;5029627;28;20145;-79
2021/07/24 03:02:42;;;;;;;23.98;12.30;;;;;;;;;;5025460;28;20069;-79
2021/07/24 03:05:10;;;;;;;24.85;12.07;;;;;;;;;;5029281;28;20057;-79
2021/07/24 03:07:40;;;;;;;30.08;11.88;;;;;;;;;;5025891;28;20056;-79
2021/07/24 03:10:07;;;;;;;25.80;13.77;;;;;;;;;;5029057;28;20137;-79
2021/07/24 03:12:35;;;;;;;29.52;11.82;;;;;;;;;;5030772;28;20080;-79
2021/07/24 03:15:02;;;;;;;28.73;12.43;;;;;;;;;;5030083;28;20091;-79
2021/07/24 03:17:31;;;;;;;25.05;13.23;;;;;;;;;;5024235;28;20129;-79
2021/07/24 03:19:58;;;;;;;24.13;12.38;;;;;;;;;;5025328;28;20088;-78
2021/07/24 03:22:27;;;;;;;22.42;12.23;;;;;;;;;;5030022;28;20458;-78
2021/07/24 03:24:57;;;;;;;27.45;12.73;;;;;;;;;;5027851;28;20826;-78
2021/07/24 03:27:24;;;;;;;20.30;11.50;;;;;;;;;;5028646;28;20485;-79
2021/07/24 03:29:51;;;;;;;22.80;12.30;;;;;;;;;;5028435;28;20132;-79
2021/07/24 03:32:18;;;;;;;20.35;11.35;;;;;;;;;;5025452;28;20045;-79
2021/07/24 03:34:46;;;;;;;22.45;11.45;;;;;;;;;;5028663;28;20461;-79
2021/07/24 03:37:13;;;;;;;25.85;12.55;;;;;;;;;;5030690;28;20053;-79
2021/07/24 03:39:40;;;;;;;25.70;11.50;;;;;;;;;;5029362;28;20081;-79
2021/07/24 03:42:07;;;;;;;20.77;11.77;;;;;;;;;;5026319;28;20136;-79
2021/07/24 03:44:34;;;;;;;23.58;11.75;;;;;;;;;;5029629;28;20072;-79
2021/07/24 03:47:01;;;;;;;23.02;12.02;;;;;;;;;;5015232;28;20427;-79
2021/07/24 03:49:29;;;;;;;29.27;14.00;;;;;;;;;;5024522;28;20107;-79
2021/07/24 03:51:56;;;;;;;25.13;13.15;;;;;;;;;;5029980;28;20128;-79
2021/07/24 03:54:23;;;;;;;26.23;12.95;;;;;;;;;;5028065;28;20128;-78
2021/07/24 03:56:50;;;;;;;25.67;11.73;;;;;;;;;;5027542;28;20476;-79
2021/07/24 03:59:17;;;;;;;23.38;11.82;;;;;;;;;;5027544;28;20475;-79
2021/07/24 04:01:44;;;;;;;20.70;10.98;;;;;;;;;;5028056;28;20128;-79
2021/07/24 04:04:13;;;;;;;23.98;11.20;;;;;;;;;;5033186;28;20110;-79
2021/07/24 04:06:43;;;;;;;23.48;11.00;;;;;;;;;;5043243;28;20700;-79
2021/07/24 04:09:10;;;;;;;27.80;11.57;;;;;;;;;;5026564;28;20057;-79
2021/07/24 04:11:37;;;;;;;25.40;11.77;;;;;;;;;;5026857;28;20516;-80
2021/07/24 04:14:06;;;;;;;21.63;10.93;;;;;;;;;;5018142;28;20052;-79
2021/07/24 04:16:34;;;;;;;24.48;11.88;;;;;;;;;;5025723;28;20100;-79
2021/07/24 04:19:02;;;;;;;24.63;11.63;;;;;;;;;;5024173;28;20085;-79
2021/07/24 04:21:29;;;;;;;22.33;11.05;;;;;;;;;;5023247;28;20133;-79
2021/07/24 04:23:56;;;;;;;26.52;11.20;;;;;;;;;;5024144;28;20053;-79
2021/07/24 04:26:24;;;;;;;21.05;10.75;;;;;;;;;;5030846;28;20541;-80
2021/07/24 04:28:51;;;;;;;19.70;9.73;;;;;;;;;;5025130;28;20148;-79
2021/07/24 04:31:19;;;;;;;20.10;9.77;;;;;;;;;;5017654;28;20109;-80
2021/07/24 04:33:46;;;;;;;16.60;9.63;;;;;;;;;;5026272;28;20053;-79
2021/07/24 04:36:14;;;;;;;17.77;10.50;;;;;;;;;;5036443;28;20104;-80
2021/07/24 04:38:42;;;;;;;19.30;9.70;;;;;;;;;;5028125;28;20088;-79
2021/07/24 04:41:16;;;;;;;17.15;9.70;;;;;;;;;;5029342;28;20085;-79
2021/07/24 04:43:44;;;;;;;21.03;10.70;;;;;;;;;;5028759;28;20148;-79
2021/07/24 04:46:12;;;;;;;23.17;9.80;;;;;;;;;;5029924;28;20722;-80
2021/07/24 04:48:39;;;;;;;18.88;9.13;;;;;;;;;;5029050;28;20057;-79
2021/07/24 04:51:07;;;;;;;17.65;8.98;;;;;;;;;;5029721;28;20049;-80
2021/07/24 04:53:34;;;;;;;16.95;9.15;;;;;;;;;;5019387;28;20133;-79
2021/07/24 04:56:03;;;;;;;21.60;9.85;;;;;;;;;;5026496;28;20053;-79
2021/07/24 04:58:31;;;;;;;21.73;9.73;;;;;;;;;;5018085;28;20652;-79
2021/07/24 05:00:58;;;;;;;15.40;8.65;;;;;;;;;;5028167;28;20045;-79
2021/07/24 05:03:25;;;;;;;16.23;8.18;;;;;;;;;;5027770;28;20844;-80
2021/07/24 05:05:53;;;;;;;24.25;9.52;;;;;;;;;;5055589;28;20049;-79
2021/07/24 05:08:22;;;;;;;19.75;9.70;;;;;;;;;;5026385;28;20058;-79
2021/07/24 05:10:49;;;;;;;18.33;8.48;;;;;;;;;;5027621;28;20051;-79
2021/07/24 05:13:17;;;;;;;17.58;8.05;;;;;;;;;;5028703;28;20517;-79
2021/07/24 05:15:44;;;;;;;23.27;8.43;;;;;;;;;;5025666;28;20104;-79
2021/07/24 05:18:12;;;;;;;22.70;8.05;;;;;;;;;;5024577;28;20077;-79
2021/07/24 05:20:40;;;;;;;16.67;8.88;;;;;;;;;;5025857;28;20137;-79
2021/07/24 05:23:07;;;;;;;16.70;9.23;;;;;;;;;;5023228;28;20860;-79
2021/07/24 05:25:34;;;;;;;18.33;8.82;;;;;;;;;;5025038;28;20620;-79
2021/07/24 05:28:01;;;;;;;22.70;8.05;;;;;;;;;;5019550;28;20077;-79
2021/07/24 05:30:29;;;;;;;19.55;8.48;;;;;;;;;;5020340;28;20083;-79
2021/07/24 05:32:56;;;;;;;16.35;8.75;;;;;;;;;;5022565;28;20100;-79
2021/07/24 05:35:23;;;;;;;13.40;7.57;;;;;;;;;;5021658;28;20133;-79
2021/07/24 05:37:50;;;;;;;15.82;8.68;;;;;;;;;;5021627;28;20072;-79
2021/07/24 05:40:17;;;;;;;18.98;8.10;;;;;;;;;;5025123;28;20132;-80
2021/07/24 05:42:45;;;;;;;14.15;7.20;;;;;;;;;;5017114;28;20048;-79
2021/07/24 05:45:12;;;;;;;13.90;7.28;;;;;;;;;;5018839;28;20081;-79
2021/07/24 05:47:39;;;;;;;15.50;7.25;;;;;;;;;;5028931;28;20140;-79
2021/07/24 05:50:07;;;;;;;20.55;7.15;;;;;;;;;;5029456;28;20518;-79
2021/07/24 05:52:34;;;;;;;20.33;6.63;;;;;;;;;;5030206;28;20130;-79
2021/07/24 05:55:01;;;;;;;21.23;6.95;;;;;;;;;;5029641;28;20053;-79
2021/07/24 05:57:29;;;;;;;17.83;7.05;;;;;;;;;;5026867;28;20412;-79
2021/07/24 05:59:56;;;;;;;14.60;7.03;;;;;;;;;;5031716;28;20127;-79
2021/07/24 06:02:23;;;;;;;17.77;6.60;;;;;;;;;;5031542;28;20125;-80
2021/07/24 06:04:51;;;;;;;15.27;5.80;;;;;;;;;;5032493;28;20060;-80
2021/07/24 06:07:18;;;;;;;10.02;6.50;;;;;;;;;;5020558;28;20050;-80
2021/07/24 06:09:46;;;;;;;12.18;6.75;;;;;;;;;;5027222;28;20050;-80
2021/07/24 06:12:13;;;;;;;12.32;6.88;;;;;;;;;;5024960;28;20395;-80
2021/07/24 06:14:40;;;;;;;18.90;6.97;;;;;;;;;;5032226;28;20136;-80
2021/07/24 06:17:08;;;;;;;13.90;6.65;;;;;;;;;;5028608;28;20076;-78
2021/07/24 06:19:35;;;;;;;15.88;6.63;;;;;;;;;;5028716;28;20136;-78
2021/07/24 06:22:03;;;;;;;14.85;6.20;;;;;;;;;;5032601;28;20068;-80
2021/07/24 06:24:30;;;;;;;14.60;6.80;;;;;;;;;;5016422;28;20156;-80
2021/07/24 06:26:57;;;;;;;13.95;6.45;;;;;;;;;;5032171;28;20084;-80
2021/07/24 06:29:24;;;;;;;10.38;6.47;;;;;;;;;;5031808;28;20077;-79
2021/07/24 06:31:53;;;;;;;12.75;6.57;;;;;;;;;;5030047;28;20896;-80
2021/07/24 06:34:20;;;;;;;19.15;6.50;;;;;;;;;;5033248;28;20049;-79
2021/07/24 06:36:47;;;;;;;10.50;6.75;;;;;;;;;;5047945;28;20124;-78
2021/07/24 06:39:15;;;;;;;10.57;5.82;;;;;;;;;;5024116;28;20150;-77
2021/07/24 06:41:42;;;;;;;12.27;6.35;;;;;;;;;;5031295;28;20085;-79
2021/07/24 06:44:09;;;;;;;19.25;6.35;;;;;;;;;;5025108;28;20073;-81
2021/07/24 06:46:36;;;;;;;13.30;6.28;;;;;;;;;;5025725;28;20517;-81
2021/07/24 06:49:04;;;;;;;15.68;7.00;;;;;;;;;;5027070;28;20635;-80
2021/07/24 06:51:31;;;;;;;9.50;6.10;;;;;;;;;;5028552;28;20155;-82
2021/07/24 06:53:58;;;;;;;16.42;7.00;;;;;;;;;;5023095;28;20076;-80
2021/07/24 06:56:26;;;;;;;18.17;7.55;;;;;;;;;;5019834;28;20073;-80
2021/07/24 06:58:54;;;;;;;16.77;7.55;;;;;;;;;;5026447;28;20080;-82
2021/07/24 07:01:21;;;;;;;20.75;6.78;;;;;;;;;;5031015;28;20192;-79
2021/07/24 07:03:49;;;;;;;15.75;7.60;;;;;;;;;;5023226;28;20050;-81
2021/07/24 07:06:17;;;;;;;14.65;6.53;;;;;;;;;;5032862;28;20085;-80
2021/07/24 07:08:44;;;;;;;15.93;7.18;;;;;;;;;;5031867;28;20077;-78
2021/07/24 07:11:13;;;;;;;14.05;7.30;;;;;;;;;;5025892;28;20571;-82
2021/07/24 07:13:40;;;;;;;15.70;6.93;;;;;;;;;;5029177;28;20049;-81
2021/07/24 07:16:10;;;;;;;16.52;7.75;;;;;;;;;;5028291;28;20144;-80
2021/07/24 07:18:38;;;;;;;13.70;7.38;;;;;;;;;;5032528;28;20083;-82
2021/07/24 07:21:06;;;;;;;11.68;7.25;;;;;;;;;;5027825;28;20466;-81
2021/07/24 07:23:33;;;;;;;13.02;7.00;;;;;;;;;;5027574;28;20080;-77
2021/07/24 07:26:01;;;;;;;15.65;8.07;;;;;;;;;;5022995;28;20053;-78
2021/07/24 07:28:28;;;;;;;26.98;8.40;;;;;;;;;;5022843;28;20080;-80
2021/07/24 07:30:56;;;;;;;16.75;7.78;;;;;;;;;;5017620;28;20132;-80
2021/07/24 07:33:24;;;;;;;12.93;7.32;;;;;;;;;;5022609;28;20128;-79
2021/07/24 07:35:55;;;;;;;14.32;7.40;;;;;;;;;;5029015;28;20119;-79
2021/07/24 07:38:22;;;;;;;16.20;7.97;;;;;;;;;;5023877;28;20075;-79
2021/07/24 07:40:49;;;;;;;15.98;7.88;;;;;;;;;;5025950;28;20128;-80
2021/07/24 07:43:16;;;;;;;13.90;7.47;;;;;;;;;;5018108;28;20077;-80
2021/07/24 07:45:45;;;;;;;14.13;7.72;;;;;;;;;;5028454;28;20133;-80
2021/07/24 07:48:13;;;;;;;22.85;8.57;;;;;;;;;;5023848;28;20080;-80
2021/07/24 07:50:41;;;;;;;11.75;7.13;;;;;;;;;;5017828;28;20164;-80
2021/07/24 07:53:10;;;;;;;14.88;8.20;;;;;;;;;;5020151;28;20111;-80
2021/07/24 07:55:40;;;;;;;20.63;8.85;;;;;;;;;;5026246;28;20053;-80
2021/07/24 07:58:25;;;;;;;18.25;9.27;;;;;;;;;;5019940;28;20055;-79
2021/07/24 08:00:56;;;;;;;15.37;8.80;;;;;;;;;;5027361;28;20119;-81
2021/07/24 08:03:26;;;;;;;13.88;8.30;;;;;;;;;;5023349;28;20300;-78
2021/07/24 08:05:53;;;;;;;13.57;8.90;;;;;;;;;;5031990;28;20083;-80
2021/07/24 08:08:21;;;;;;;17.63;9.23;;;;;;;;;;5022479;28;20050;-79
2021/07/24 08:10:49;;;;;;;17.40;8.90;;;;;;;;;;5024426;28;20057;-81
2021/07/24 08:13:17;;;;;;;23.98;9.48;;;;;;;;;;5025175;28;20137;-81
2021/07/24 08:15:45;;;;;;;19.40;9.77;;;;;;;;;;5030619;28;20050;-81
2021/07/24 08:18:12;;;;;;;15.38;9.55;;;;;;;;;;5028961;28;20080;-81
2021/07/24 08:20:40;;;;;;;16.95;8.90;;;;;;;;;;5030387;28;20049;-81
2021/07/24 08:23:08;;;;;;;20.00;9.70;;;;;;;;;;5027667;28;20053;-80
2021/07/24 08:25:36;;;;;;;15.85;8.80;;;;;;;;;;5029959;28;20156;-80
2021/07/24 08:28:04;;;;;;;19.67;9.60;;;;;;;;;;5028890;28;20049;-81
2021/07/24 08:30:35;;;;;;;20.15;9.77;;;;;;;;;;5032214;28;20168;-80
2021/07/24 08:33:03;;;;;;;17.83;9.10;;;;;;;;;;5028394;28;20060;-80
2021/07/24 08:35:30;;;;;;;15.55;9.80;;;;;;;;;;5039215;28;20050;-80
2021/07/24 08:37:57;;;;;;;14.35;9.20;;;;;;;;;;5030517;28;20084;-81
2021/07/24 08:40:25;;;;;;;17.38;9.50;;;;;;;;;;5030309;28;20124;-81
2021/07/24 08:42:52;;;;;;;22.80;10.40;;;;;;;;;;5030291;28;20146;-81
2021/07/24 08:45:20;;;;;;;21.30;11.23;;;;;;;;;;5028859;28;20125;-80
2021/07/24 08:47:47;;;;;;;16.98;10.15;;;;;;;;;;5029556;28;20140;-81
2021/07/24 08:50:14;;;;;;;23.20;10.55;;;;;;;;;;5029337;28;20140;-80
2021/07/24 08:52:42;;;;;;;17.98;10.52;;;;;;;;;;5030269;28;20141;-81
2021/07/24 08:55:10;;;;;;;37.47;10.85;;;;;;;;;;5017870;28;20052;-81
2021/07/24 08:57:39;;;;;;;23.23;10.73;;;;;;;;;;5025626;28;20053;-81
2021/07/24 09:00:06;;;;;;;15.73;9.77;;;;;;;;;;5022883;28;20063;-81
2021/07/24 09:02:37;;;;;;;15.70;10.82;;;;;;;;;;5030428;28;20049;-81
2021/07/24 09:05:05;;;;;;;13.27;9.77;;;;;;;;;;5042477;28;20072;-80
2021/07/24 09:07:35;;;;;;;17.77;10.57;;;;;;;;;;5029766;28;20077;-81
2021/07/24 09:10:03;;;;;;;18.48;11.32;;;;;;;;;;5021300;28;20093;-81
2021/07/24 09:12:30;;;;;;;20.17;10.70;;;;;;;;;;5010632;28;20457;-81
2021/07/24 09:14:59;;;;;;;21.02;10.80;;;;;;;;;;5019131;28;20064;-81
2021/07/24 09:17:26;;;;;;;17.55;10.35;;;;;;;;;;5029290;28;20136;-81
2021/07/24 09:19:53;;;;;;;26.00;11.70;;;;;;;;;;5030201;28;20136;-80
2021/07/24 09:22:31;;;;;;;16.02;10.20;;;;;;;;;;5029385;28;20133;-81
2021/07/24 09:25:06;;;;;;;19.42;10.48;;;;;;;;;;5030250;28;20125;-80
2021/07/24 09:27:37;;;;;;;19.00;10.75;;;;;;;;;;5033297;28;20052;-80
2021/07/24 09:30:08;;;;;;;19.13;10.52;;;;;;;;;;5033293;28;20055;-81
2021/07/24 09:32:35;;;;;;;20.50;11.07;;;;;;;;;;5030783;28;20046;-81
2021/07/24 09:35:03;;;;;;;15.43;9.82;;;;;;;;;;5040314;28;20132;-81
2021/07/24 09:37:31;;;;;;;17.02;10.57;;;;;;;;;;5033186;28;20042;-80
2021/07/24 09:40:18;;;;;;;20.70;11.63;;;;;;;;;;5022395;28;20483;-80
2021/07/24 09:42:46;;;;;;;18.95;11.25;;;;;;;;;;5033081;28;20055;-81
2021/07/24 09:45:13;;;;;;;21.13;11.57;;;;;;;;;;5028437;28;20124;-81
2021/07/24 09:47:40;;;;;;;18.13;11.35;;;;;;;;;;5033493;28;20057;-81
2021/07/24 09:50:11;;;;;;;18.52;10.95;;;;;;;;;;5012791;28;20141;-81
2021/07/24 09:53:04;;;;;;;20.90;12.00;;;;;;;;;;5022604;28;20195;-80
2021/07/24 09:55:31;;;;;;;22.10;12.70;;;;;;;;;;5028202;28;20124;-81
2021/07/24 09:57:59;;;;;;;18.90;12.10;;;;;;;;;;5028034;28;20494;-81
2021/07/24 10:00:28;;;;;;;18.60;11.07;;;;;;;;;;5030008;28;20065;-80
2021/07/24 10:02:59;;;;;;;17.55;10.85;;;;;;;;;;5028300;28;20133;-81
2021/07/24 10:05:40;;;;;;;17.02;11.18;;;;;;;;;;5031366;28;20084;-81
2021/07/24 10:08:11;;;;;;;25.75;12.27;;;;;;;;;;5029702;28;20475;-81
2021/07/24 10:10:39;;;;;;;18.80;12.40;;;;;;;;;;5032400;28;20132;-81
2021/07/24 10:13:10;;;;;;;18.27;11.77;;;;;;;;;;5030681;28;20134;-80
2021/07/24 10:15:42;;;;;;;19.65;12.00;;;;;;;;;;5032999;28;20132;-81
2021/07/24 10:18:10;;;;;;;16.50;11.25;;;;;;;;;;5031033;28;20085;-81
2021/07/24 10:20:38;;;;;;;30.77;12.32;;;;;;;;;;5032053;28;20049;-81
2021/07/24 10:23:06;;;;;;;17.85;10.48;;;;;;;;;;5029913;28;20132;-81
2021/07/24 10:25:55;;;;;;;18.20;11.50;;;;;;;;;;5032637;28;20100;-81
2021/07/24 10:28:24;;;;;;;19.73;12.10;;;;;;;;;;5019076;28;20084;-81
2021/07/24 10:30:53;;;;;;;17.88;10.82;;;;;;;;;;5026098;28;20124;-80
2021/07/24 10:33:22;;;;;;;17.95;12.38;;;;;;;;;;5035152;28;20457;-80
2021/07/24 10:35:49;;;;;;;23.73;12.40;;;;;;;;;;5044555;28;20648;-80
2021/07/24 10:38:30;;;;;;;16.80;11.68;;;;;;;;;;5031117;28;20103;-81
2021/07/24 10:41:26;;;;;;;16.63;11.25;;;;;;;;;;5033080;28;20554;-81
2021/07/24 10:44:00;;;;;;;15.38;11.10;;;;;;;;;;5038828;28;20087;-80
2021/07/24 10:46:43;;;;;;;16.73;10.75;;;;;;;;;;5031854;28;20140;-80
2021/07/24 10:49:24;;;;;;;23.38;10.85;;;;;;;;;;5024077;28;20512;-81
2021/07/24 10:51:52;;;;;;;21.25;11.38;;;;;;;;;;5032064;28;20053;-80
2021/07/24 10:54:23;;;;;;;21.40;9.88;;;;;;;;;;5015935;28;20065;-81
2021/07/24 10:56:52;;;;;;;14.27;11.05;;;;;;;;;;5027731;28;20136;-80
2021/07/24 10:59:29;;;;;;;24.67;10.82;;;;;;;;;;5025624;28;20124;-81
2021/07/24 11:02:00;;;;;;;15.85;11.45;;;;;;;;;;5020699;28;20572;-80
2021/07/24 11:04:36;;;;;;;16.73;11.05;;;;;;;;;;5033453;28;20650;-81
2021/07/24 11:07:22;;;;;;;16.50;11.55;;;;;;;;;;5037339;28;20132;-81
2021/07/24 11:09:53;;;;;;;19.40;11.52;;;;;;;;;;5034819;28;20113;-81
2021/07/24 11:12:40;;;;;;;16.65;10.80;;;;;;;;;;5025029;28;20164;-81
2021/07/24 11:15:08;;;;;;;36.80;12.13;;;;;;;;;;5035916;28;20061;-81
2021/07/24 11:17:35;;;;;;;14.68;10.73;;;;;;;;;;5031400;28;20092;-81
2021/07/24 11:20:11;;;;;;;18.98;10.93;;;;;;;;;;5031268;28;20091;-82
2021/07/24 11:22:57;;;;;;;14.48;9.73;;;;;;;;;;5029666;28;20059;-81
2021/07/24 11:25:24;;;;;;;19.27;11.10;;;;;;;;;;5010120;28;20108;-81
2021/07/24 11:27:53;;;;;;;17.38;9.30;;;;;;;;;;5029594;28;20710;-81
2021/07/24 11:30:26;;;;;;;14.80;10.15;;;;;;;;;;5030355;28;20128;-81
2021/07/24 11:32:57;;;;;;;15.77;9.50;;;;;;;;;;5029801;28;20053;-81
2021/07/24 11:35:28;;;;;;;15.30;9.20;;;;;;;;;;5029959;28;20049;-81
2021/07/24 11:37:55;;;;;;;18.10;8.73;;;;;;;;;;5038685;28;20550;-82
2021/07/24 11:40:24;;;;;;;17.65;9.75;;;;;;;;;;5025362;28;20049;-82
2021/07/24 11:43:06;;;;;;;13.05;8.90;;;;;;;;;;5026371;28;20525;-81
2021/07/24 11:45:35;;;;;;;12.57;8.70;;;;;;;;;;5030458;28;20053;-81
2021/07/24 11:48:23;;;;;;;14.25;9.00;;;;;;;;;;5030145;28;20064;-81
2021/07/24 11:50:59;;;;;;;14.55;8.90;;;;;;;;;;5029524;28;20254;-81
2021/07/24 11:53:27;;;;;;;20.17;9.48;;;;;;;;;;5030210;28;20425;-81
2021/07/24 11:58:57;;;;;;;14.18;8.57;;;;;;;;;;5002903;28;20120;-77
2021/07/24 12:01:25;;;;;;;18.42;8.60;;;;;;;;;;5005040;28;20128;-76
2021/07/24 12:04:03;;;;;;;12.57;8.88;;;;;;;;;;5004140;28;20058;-76
2021/07/24 12:06:30;;;;;;;13.80;9.30;;;;;;;;;;4987600;28;20049;-76
2021/07/24 12:08:58;;;;;;;16.30;9.57;;;;;;;;;;4984000;28;20054;-76
2021/07/24 12:11:25;;;;;;;15.05;10.50;;;;;;;;;;5005765;28;20085;-77
2021/07/24 12:14:02;;;;;;;16.42;9.30;;;;;;;;;;5004832;28;20082;-76
2021/07/24 12:16:37;;;;;;;17.45;10.63;;;;;;;;;;4987667;28;20085;-77
2021/07/24 12:19:15;;;;;;;14.63;10.10;;;;;;;;;;4986850;28;20042;-77
2021/07/24 12:21:42;;;;;;;15.32;9.68;;;;;;;;;;4987474;28;20754;-77
2021/07/24 12:24:09;;;;;;;16.58;9.82;;;;;;;;;;5005922;28;20053;-76
2021/07/24 12:26:39;;;;;;;14.00;9.43;;;;;;;;;;4987088;28;20136;-76
2021/07/24 12:29:12;;;;;;;12.77;9.18;;;;;;;;;;5003323;28;20569;-76
2021/07/24 12:31:43;;;;;;;18.30;10.13;;;;;;;;;;5004635;28;20140;-76
2021/07/24 12:34:17;;;;;;;11.15;8.63;;;;;;;;;;5004241;28;20053;-76
2021/07/24 12:36:55;;;;;;;15.55;9.93;;;;;;;;;;5004183;28;20050;-77
2021/07/24 12:39:23;;;;;;;14.52;8.88;;;;;;;;;;4986953;28;20137;-76
2021/07/24 12:42:17;;;;;;;12.88;9.25;;;;;;;;;;5006267;28;20157;-76
2021/07/24 12:44:54;;;;;;;12.43;9.48;;;;;;;;;;4989117;28;20125;-76
2021/07/24 12:47:22;;;;;;;16.00;9.55;;;;;;;;;;5004984;28;20053;-76
2021/07/24 12:49:54;;;;;;;26.88;10.32;;;;;;;;;;5005072;28;20061;-76
2021/07/24 12:52:32;;;;;;;15.13;9.45;;;;;;;;;;4987697;28;20062;-77
2021/07/24 12:55:14;;;;;;;14.80;9.00;;;;;;;;;;5005887;28;20088;-77
2021/07/24 12:57:41;;;;;;;15.02;9.43;;;;;;;;;;4987427;28;20484;-76
2021/07/24 13:00:09;;;;;;;14.15;9.23;;;;;;;;;;5004924;28;20394;-77
2021/07/24 13:02:39;;;;;;;13.43;8.30;;;;;;;;;;4990728;28;20394;-76
2021/07/24 13:05:08;;;;;;;12.55;8.93;;;;;;;;;;4990118;28;20163;-76
2021/07/24 13:07:38;;;;;;;13.82;9.02;;;;;;;;;;4991216;28;20173;-77
2021/07/24 13:10:06;;;;;;;13.75;9.75;;;;;;;;;;5008954;28;20120;-76
2021/07/24 13:12:33;;;;;;;16.95;9.07;;;;;;;;;;4990228;28;20579;-77
2021/07/24 13:15:00;;;;;;;14.00;9.80;;;;;;;;;;4991890;28;20089;-77
2021/07/24 13:17:28;;;;;;;21.05;9.40;;;;;;;;;;5008921;28;20166;-76
2021/07/24 13:19:56;;;;;;;12.73;8.68;;;;;;;;;;5022259;28;20136;-77
2021/07/24 13:22:24;;;;;;;12.25;8.90;;;;;;;;;;4992798;28;20061;-77
2021/07/24 13:25:02;;;;;;;16.58;9.48;;;;;;;;;;4990082;28;20061;-77
2021/07/24 13:30:39;;;;;;;15.48;9.18;;;;;;;;;;4963823;28;20055;-76
2021/07/24 13:33:06;;;;;;;13.63;8.77;;;;;;;;;;4965846;28;20169;-76
2021/07/24 13:35:34;;;;;;;11.43;8.70;;;;;;;;;;4986257;28;20058;-76
2021/07/24 13:38:01;;;;;;;12.75;8.77;;;;;;;;;;5008915;28;20056;-76
2021/07/24 13:40:28;;;;;;;15.90;9.05;;;;;;;;;;5008648;28;20046;-76
2021/07/24 13:43:00;;;;;;;16.50;9.48;;;;;;;;;;4990126;28;20049;-76
2021/07/24 13:45:28;;;;;;;21.10;9.40;;;;;;;;;;5007642;28;20085;-76
2021/07/24 13:47:59;;;;;;;15.48;9.35;;;;;;;;;;4990924;28;20056;-77
2021/07/24 13:50:26;;;;;;;12.57;8.75;;;;;;;;;;5009328;28;20049;-76
2021/07/24 13:52:54;;;;;;;17.23;9.05;;;;;;;;;;4990386;28;20100;-77
2021/07/24 13:55:21;;;;;;;12.75;9.35;;;;;;;;;;5007685;28;20060;-76
2021/07/24 13:57:48;;;;;;;15.95;9.60;;;;;;;;;;4990141;28;20045;-77
2021/07/24 14:00:15;;;;;;;16.13;9.10;;;;;;;;;;5007362;28;20054;-76
2021/07/24 14:02:42;;;;;;;18.85;9.32;;;;;;;;;;5007246;28;20392;-77
2021/07/24 14:05:10;;;;;;;15.48;8.98;;;;;;;;;;4989570;28;20050;-77
2021/07/24 14:07:38;;;;;;;14.90;9.48;;;;;;;;;;5008076;28;20050;-76
2021/07/24 14:10:06;;;;;;;14.38;9.60;;;;;;;;;;5008475;28;20166;-76
2021/07/24 14:12:33;;;;;;;14.73;10.25;;;;;;;;;;4989945;28;20077;-76
2021/07/24 14:15:15;;;;;;;14.52;9.18;;;;;;;;;;5007131;28;20107;-76
2021/07/24 14:17:42;;;;;;;13.25;9.60;;;;;;;;;;5008295;28;20760;-76
2021/07/24 14:20:10;;;;;;;16.13;9.27;;;;;;;;;;5007469;28;20042;-76
2021/07/24 14:22:37;;;;;;;15.85;9.63;;;;;;;;;;5007570;28;20113;-76
2021/07/24 14:25:06;;;;;;;19.80;9.48;;;;;;;;;;4987771;28;20046;-76
2021/07/24 14:27:33;;;;;;;13.48;9.32;;;;;;;;;;4990467;28;20161;-76
2021/07/24 14:30:00;;;;;;;17.33;9.30;;;;;;;;;;5007427;28;20053;-76
2021/07/24 14:32:28;;;;;;;15.63;9.02;;;;;;;;;;5008064;28;20049;-76
2021/07/24 14:34:55;;;;;;;12.55;8.70;;;;;;;;;;5007397;28;20141;-76
2021/07/24 14:37:22;;;;;;;15.73;8.80;;;;;;;;;;5009017;28;20743;-76
2021/07/24 14:39:49;;;;;;;13.27;9.50;;;;;;;;;;4990103;28;20052;-76
2021/07/24 14:42:16;;;;;;;14.73;10.05;;;;;;;;;;5007687;28;20765;-76
2021/07/24 14:44:44;;;;;;;15.52;10.48;;;;;;;;;;4989551;28;20077;-76